createdAt,value
2023-04-10T00:00:38.922Z,11.81
2023-04-10T00:03:06.547Z,11.82
2023-04-10T00:05:34.171Z,11.82
2023-04-10T00:08:02.716Z,11.79
2023-04-10T00:10:31.305Z,11.77
2023-04-10T00:13:09.062Z,11.74
2023-04-10T00:15:37.310Z,11.74
2023-04-10T00:18:05.120Z,11.74
2023-04-10T00:20:32.481Z,11.76
2023-04-10T00:22:59.846Z,11.76
2023-04-10T00:25:29.417Z,11.76
2023-04-10T00:27:57.920Z,11.74
2023-04-10T00:30:25.060Z,11.72
2023-04-10T00:32:55.635Z,11.72
2023-04-10T00:35:22.641Z,11.75
2023-04-10T00:37:50.614Z,11.75
2023-04-10T00:40:17.581Z,11.76
2023-04-10T00:42:47.465Z,11.78
2023-04-10T00:45:14.639Z,11.79
2023-04-10T00:47:46.706Z,11.80
2023-04-10T00:50:13.913Z,11.81
2023-04-10T00:52:40.876Z,11.83
2023-04-10T00:55:08.435Z,11.87
2023-04-10T00:57:35.603Z,11.91
2023-04-10T01:00:04.491Z,11.92
2023-04-10T01:02:33.423Z,11.91
2023-04-10T01:05:01.753Z,11.89
2023-04-10T01:07:38.600Z,11.87
2023-04-10T01:10:25.234Z,11.87
2023-04-10T01:13:00.401Z,11.84
2023-04-10T01:15:27.954Z,11.85
2023-04-10T01:18:11.951Z,11.91
2023-04-10T01:20:39.687Z,11.90
2023-04-10T01:23:22.340Z,11.91
2023-04-10T01:25:51.540Z,11.91
2023-04-10T01:28:20.673Z,11.88
2023-04-10T01:30:53.176Z,11.86
2023-04-10T01:33:22.152Z,11.89
2023-04-10T01:35:50.690Z,11.83
2023-04-10T01:38:18.291Z,11.80
2023-04-10T01:40:49.768Z,11.79
2023-04-10T01:43:20.612Z,11.79
2023-04-10T01:45:51.460Z,11.85
2023-04-10T01:48:19.963Z,11.86
2023-04-10T01:50:46.904Z,11.87
2023-04-10T01:53:14.215Z,11.86
2023-04-10T01:55:42.636Z,11.82
2023-04-10T01:58:11.601Z,11.82
2023-04-10T02:00:42.635Z,11.80
2023-04-10T02:03:11.022Z,11.78
2023-04-10T02:06:02.041Z,11.78
2023-04-10T02:08:34.527Z,11.76
2023-04-10T02:11:33.655Z,11.76
2023-04-10T02:14:01.802Z,11.74
2023-04-10T02:16:29.342Z,11.74
2023-04-10T02:18:57.305Z,11.75
2023-04-10T02:21:28.448Z,11.76
2023-04-10T02:23:58.387Z,11.82
2023-04-10T02:26:25.654Z,11.86
2023-04-10T02:29:01.447Z,11.88
2023-04-10T02:31:28.308Z,11.86
2023-04-10T02:33:55.706Z,11.86
2023-04-10T02:36:23.090Z,11.89
2023-04-10T02:38:52.054Z,11.92
2023-04-10T02:41:18.979Z,11.92
2023-04-10T02:43:46.551Z,11.90
2023-04-10T02:46:14.107Z,11.93
2023-04-10T02:48:42.078Z,11.90
2023-04-10T02:51:10.612Z,11.88
2023-04-10T02:53:40.192Z,11.90
2023-04-10T02:56:08.653Z,11.96
2023-04-10T02:58:36.097Z,11.93
2023-04-10T03:01:04.934Z,11.92
2023-04-10T03:03:40.802Z,11.89
2023-04-10T03:06:13.338Z,11.91
2023-04-10T03:08:42.241Z,11.89
2023-04-10T03:11:09.187Z,11.90
2023-04-10T03:13:41.450Z,11.89
2023-04-10T03:16:08.468Z,11.88
2023-04-10T03:18:36.127Z,11.88
2023-04-10T03:21:07.450Z,11.83
2023-04-10T03:23:36.565Z,11.82
2023-04-10T03:26:04.925Z,11.82
2023-04-10T03:28:37.640Z,11.81
2023-04-10T03:31:05.361Z,11.80
2023-04-10T03:33:39.792Z,11.81
2023-04-10T03:36:13.614Z,11.83
2023-04-10T03:38:41.087Z,11.82
2023-04-10T03:41:11.649Z,11.81
2023-04-10T03:43:39.507Z,11.81
2023-04-10T03:46:07.201Z,11.82
2023-04-10T03:48:37.742Z,11.78
2023-04-10T03:51:05.786Z,11.81
2023-04-10T03:53:35.571Z,11.85
2023-04-10T03:56:06.057Z,11.86
2023-04-10T03:58:32.976Z,11.86
2023-04-10T04:01:00.401Z,11.87
2023-04-10T04:03:34.409Z,11.88
2023-04-10T04:06:27.619Z,11.89
2023-04-10T04:09:07.738Z,11.89
2023-04-10T04:12:12.113Z,11.88
2023-04-10T04:14:51.357Z,11.86
2023-04-10T04:17:18.521Z,11.86
2023-04-10T04:20:20.314Z,11.90
2023-04-10T04:22:59.126Z,11.88
2023-04-10T04:25:34.988Z,11.89
2023-04-10T04:28:20.104Z,11.89
2023-04-10T04:31:06.356Z,11.91
2023-04-10T04:33:52.858Z,11.89
2023-04-10T04:36:43.438Z,11.90
2023-04-10T04:39:24.035Z,11.90
2023-04-10T04:42:05.181Z,11.91
2023-04-10T04:44:49.100Z,11.91
2023-04-10T04:47:40.908Z,11.89
2023-04-10T04:50:23.036Z,11.89
2023-04-10T04:53:13.443Z,11.94
2023-04-10T04:55:49.674Z,11.98
2023-04-10T04:58:46.139Z,11.99
2023-04-10T05:01:20.464Z,12.03
2023-04-10T05:04:07.353Z,12.04
2023-04-10T05:06:54.719Z,12.04
2023-04-10T05:09:44.338Z,12.06
2023-04-10T05:12:20.610Z,12.05
2023-04-10T05:15:08.954Z,12.05
2023-04-10T05:17:50.601Z,12.05
2023-04-10T05:20:52.920Z,12.05
2023-04-10T05:23:43.332Z,12.07
2023-04-10T05:26:36.282Z,12.08
2023-04-10T05:29:11.758Z,12.08
2023-04-10T05:31:53.928Z,12.10
2023-04-10T05:34:44.191Z,12.11
2023-04-10T05:37:33.251Z,12.10
2023-04-10T05:40:20.471Z,12.09
2023-04-10T05:43:06.679Z,12.10
2023-04-10T05:45:56.265Z,12.10
2023-04-10T05:48:52.948Z,12.09
2023-04-10T05:51:36.808Z,12.09
2023-04-10T05:54:19.150Z,12.10
2023-04-10T05:57:04.504Z,12.12
2023-04-10T05:59:50.529Z,12.15
2023-04-10T06:02:44.069Z,12.19
2023-04-10T06:05:17.514Z,12.23
2023-04-10T06:10:37.016Z,12.24
2023-04-10T06:13:04.003Z,12.19
2023-04-10T06:15:38.238Z,12.18
2023-04-10T06:18:06.256Z,12.17
2023-04-10T06:20:33.154Z,12.13
2023-04-10T06:23:00.890Z,12.08
2023-04-10T06:25:28.775Z,12.07
2023-04-10T06:27:56.136Z,12.09
2023-04-10T06:30:30.626Z,12.11
2023-04-10T06:32:58.324Z,12.14
2023-04-10T06:35:26.902Z,12.17
2023-04-10T06:37:55.389Z,12.20
2023-04-10T06:40:22.650Z,12.24
2023-04-10T06:42:49.474Z,12.27
2023-04-10T06:45:24.345Z,12.26
2023-04-10T06:47:51.909Z,12.26
2023-04-10T06:50:22.917Z,12.22
2023-04-10T06:52:49.779Z,12.13
2023-04-10T06:55:16.940Z,12.07
2023-04-10T06:58:03.699Z,12.02
2023-04-10T07:00:31.296Z,12.02
2023-04-10T07:02:59.083Z,12.05
2023-04-10T07:05:26.361Z,12.06
2023-04-10T07:07:53.429Z,12.05
2023-04-10T07:10:25.387Z,12.03
2023-04-10T07:12:59.622Z,12.02
2023-04-10T07:15:42.341Z,12.01
2023-04-10T07:18:09.819Z,12.02
2023-04-10T07:20:37.670Z,12.07
2023-04-10T07:23:12.281Z,12.12
2023-04-10T07:25:43.397Z,12.21
2023-04-10T07:28:10.834Z,12.30
2023-04-10T07:30:44.456Z,12.35
2023-04-10T07:33:12.702Z,12.38
2023-04-10T07:35:39.906Z,12.38
2023-04-10T07:38:07.175Z,12.33
2023-04-10T07:40:35.524Z,12.29
2023-04-10T07:43:02.588Z,12.28
2023-04-10T07:45:30.073Z,12.30
2023-04-10T07:47:58.903Z,12.33
2023-04-10T07:50:25.879Z,12.35
2023-04-10T07:52:53.300Z,12.40
2023-04-10T07:55:37.347Z,12.50
2023-04-10T07:58:05.966Z,12.62
2023-04-10T08:00:33.334Z,12.76
2023-04-10T08:03:01.144Z,12.89
2023-04-10T08:05:28.690Z,13.03
2023-04-10T08:07:55.942Z,13.16
2023-04-10T08:10:28.560Z,13.32
2023-04-10T08:12:58.033Z,13.48
2023-04-10T08:15:25.106Z,13.60
2023-04-10T08:17:53.278Z,13.70
2023-04-10T08:20:20.626Z,13.78
2023-04-10T08:22:47.550Z,13.82
2023-04-10T08:25:15.155Z,13.81
2023-04-10T08:27:55.433Z,13.76
2023-04-10T08:30:23.443Z,13.74
2023-04-10T08:32:50.640Z,13.70
2023-04-10T08:35:22.902Z,13.67
2023-04-10T08:38:02.105Z,13.63
2023-04-10T08:40:37.991Z,13.62
2023-04-10T08:43:11.606Z,13.66
2023-04-10T08:45:40.909Z,13.71
2023-04-10T08:48:09.034Z,13.84
2023-04-10T08:50:41.705Z,14.01
2023-04-10T08:53:10.980Z,14.22
2023-04-10T08:55:42.644Z,14.44
2023-04-10T08:58:13.086Z,14.65
2023-04-10T09:00:48.209Z,14.91
2023-04-10T09:03:17.029Z,15.11
2023-04-10T09:05:44.537Z,15.24
2023-04-10T09:08:13.142Z,15.35
2023-04-10T09:10:41.623Z,15.42
2023-04-10T09:13:08.719Z,15.49
2023-04-10T09:15:58.368Z,15.50
2023-04-10T09:18:50.789Z,15.43
2023-04-10T09:21:19.993Z,15.39
2023-04-10T09:23:48.054Z,15.44
2023-04-10T09:26:23.346Z,15.51
2023-04-10T09:29:00.988Z,15.62
2023-04-10T09:31:31.611Z,15.76
2023-04-10T09:34:12.705Z,15.90
2023-04-10T09:36:45.521Z,16.00
2023-04-10T09:39:16.203Z,16.01
2023-04-10T09:42:06.452Z,15.98
2023-04-10T09:44:34.024Z,15.80
2023-04-10T09:47:14.202Z,15.63
2023-04-10T09:49:52.055Z,15.60
2023-04-10T09:52:31.929Z,15.67
2023-04-10T09:55:00.618Z,15.71
2023-04-10T09:57:29.088Z,15.74
2023-04-10T10:00:05.801Z,15.79
2023-04-10T10:02:41.338Z,15.83
2023-04-10T10:05:11.069Z,15.87
2023-04-10T10:07:41.395Z,15.93
2023-04-10T10:10:08.679Z,15.97
2023-04-10T10:13:08.184Z,15.91
2023-04-10T10:16:05.140Z,15.84
2023-04-10T10:18:48.210Z,15.96
2023-04-10T10:21:15.268Z,16.12
2023-04-10T10:23:47.529Z,16.29
2023-04-10T10:26:14.678Z,16.39
2023-04-10T10:28:42.365Z,16.44
2023-04-10T10:31:11.832Z,16.41
2023-04-10T10:33:39.095Z,16.34
2023-04-10T10:36:06.207Z,16.36
2023-04-10T10:38:34.050Z,16.44
2023-04-10T10:41:08.856Z,16.46
2023-04-10T10:44:26.882Z,16.42
2023-04-10T10:47:05.345Z,16.37
2023-04-10T10:49:56.922Z,16.23
2023-04-10T10:52:38.239Z,16.18
2023-04-10T10:55:21.659Z,16.30
2023-04-10T10:57:51.646Z,16.52
2023-04-10T11:00:22.738Z,16.76
2023-04-10T11:03:11.441Z,17.04
2023-04-10T11:05:55.822Z,17.33
2023-04-10T11:08:36.407Z,17.51
2023-04-10T11:11:25.230Z,17.58
2023-04-10T11:13:52.303Z,17.61
2023-04-10T11:16:36.808Z,17.61
2023-04-10T11:19:15.337Z,17.56
2023-04-10T11:22:07.591Z,17.50
2023-04-10T11:24:57.974Z,17.38
2023-04-10T11:27:41.297Z,17.19
2023-04-10T11:30:27.818Z,16.84
2023-04-10T11:32:55.402Z,16.30
2023-04-10T11:35:22.421Z,15.88
2023-04-10T11:37:49.409Z,15.60
2023-04-10T11:40:16.754Z,15.41
2023-04-10T11:42:44.172Z,15.36
2023-04-10T11:45:25.559Z,15.44
2023-04-10T11:47:54.865Z,15.62
2023-04-10T11:50:21.915Z,15.85
2023-04-10T11:52:50.309Z,16.09
2023-04-10T11:55:17.692Z,16.39
2023-04-10T11:57:45.045Z,16.70
2023-04-10T12:00:13.194Z,16.99
2023-04-10T12:02:52.637Z,17.20
2023-04-10T12:05:20.317Z,17.37
2023-04-10T12:07:49.801Z,17.42
2023-04-10T12:10:16.923Z,17.39
2023-04-10T12:12:49.834Z,17.24
2023-04-10T12:15:27.177Z,17.07
2023-04-10T12:17:54.832Z,16.88
2023-04-10T12:20:27.352Z,16.79
2023-04-10T12:23:00.813Z,16.79
2023-04-10T12:25:27.962Z,16.83
2023-04-10T12:27:55.960Z,16.85
2023-04-10T12:30:23.485Z,16.89
2023-04-10T12:32:54.234Z,16.93
2023-04-10T12:35:40.869Z,16.91
2023-04-10T12:38:08.062Z,16.76
2023-04-10T12:40:35.992Z,16.37
2023-04-10T12:43:02.760Z,15.90
2023-04-10T12:45:50.166Z,15.52
2023-04-10T12:48:23.409Z,15.08
2023-04-10T12:50:56.749Z,14.70
2023-04-10T12:53:25.091Z,14.51
2023-04-10T12:56:06.016Z,14.37
2023-04-10T12:58:34.097Z,14.28
2023-04-10T13:01:05.664Z,14.17
2023-04-10T13:03:33.269Z,14.08
2023-04-10T13:06:03.127Z,14.10
2023-04-10T13:08:32.063Z,14.20
2023-04-10T13:11:02.580Z,14.34
2023-04-10T13:13:33.148Z,14.50
2023-04-10T13:16:00.354Z,14.67
2023-04-10T13:18:27.740Z,14.81
2023-04-10T13:20:54.732Z,14.94
2023-04-10T13:23:23.259Z,15.02
2023-04-10T13:25:50.624Z,15.17
2023-04-10T13:28:18.445Z,15.31
2023-04-10T13:30:46.132Z,15.42
2023-04-10T13:33:14.087Z,15.50
2023-04-10T13:48:48.243Z,16.26
2023-04-10T13:51:16.497Z,16.82
2023-04-10T13:53:44.965Z,17.02
2023-04-10T14:08:23.018Z,17.92
2023-04-10T14:10:51.754Z,18.26
2023-04-10T14:13:20.288Z,18.27
2023-04-10T14:15:52.235Z,18.32
2023-04-10T14:18:20.615Z,18.35
2023-04-10T14:20:58.451Z,18.37
2023-04-10T14:23:29.179Z,18.22
2023-04-10T14:25:57.385Z,18.08
2023-04-10T14:28:29.503Z,18.00
2023-04-10T14:30:58.153Z,18.06
2023-04-10T14:33:32.314Z,18.28
2023-04-10T14:36:01.029Z,18.58
2023-04-10T14:38:29.855Z,19.01
2023-04-10T14:40:58.690Z,19.51
2023-04-10T14:43:27.303Z,20.02
2023-04-10T14:45:59.140Z,20.66
2023-04-10T14:48:27.785Z,21.23
2023-04-10T14:50:59.114Z,21.76
2023-04-10T14:53:27.726Z,22.09
2023-04-10T14:55:55.995Z,22.27
2023-04-10T14:58:25.875Z,22.40
2023-04-10T15:00:54.408Z,22.55
2023-04-10T15:03:25.191Z,22.78
2023-04-10T15:06:01.089Z,23.06
2023-04-10T15:08:30.912Z,23.35
2023-04-10T15:11:02.237Z,23.67
2023-04-10T15:13:36.260Z,23.95
2023-04-10T15:16:06.847Z,24.09
2023-04-10T15:18:35.082Z,24.22
2023-04-10T15:21:03.493Z,24.37
2023-04-10T15:23:31.970Z,24.61
2023-04-10T15:26:01.439Z,24.88
2023-04-10T15:28:31.196Z,25.09
2023-04-10T15:30:59.967Z,25.28
2023-04-10T15:33:28.777Z,25.39
2023-04-10T15:35:57.150Z,25.24
2023-04-10T15:38:26.494Z,25.11
2023-04-10T15:40:55.888Z,25.19
2023-04-10T15:43:24.118Z,25.17
2023-04-10T15:45:55.454Z,25.15
2023-04-10T15:48:24.974Z,24.98
2023-04-10T15:50:54.698Z,24.88
2023-04-10T15:53:23.315Z,24.54
2023-04-10T15:55:51.891Z,24.06
2023-04-10T15:58:20.181Z,23.79
2023-04-10T16:00:48.502Z,23.57
2023-04-10T16:03:17.404Z,23.11
2023-04-10T16:05:47.958Z,22.68
2023-04-10T16:08:16.232Z,22.48
2023-04-10T16:10:44.535Z,22.40
2023-04-10T16:13:14.706Z,22.29
2023-04-10T16:15:43.447Z,22.17
2023-04-10T16:18:11.691Z,22.02
2023-04-10T16:20:43.392Z,21.75
2023-04-10T16:23:11.768Z,21.28
2023-04-10T16:25:40.300Z,20.83
2023-04-10T16:28:09.284Z,20.31
2023-04-10T16:30:39.774Z,19.79
2023-04-10T16:33:09.181Z,19.30
2023-04-10T16:35:37.591Z,18.82
2023-04-10T16:38:06.245Z,18.38
2023-04-10T16:40:35.127Z,17.97
2023-04-10T16:43:04.127Z,17.59
2023-04-10T16:45:32.680Z,17.24
2023-04-10T16:48:01.307Z,16.92
2023-04-10T16:50:30.190Z,16.64
2023-04-10T16:52:59.581Z,16.35
2023-04-10T16:55:27.948Z,16.03
2023-04-10T16:57:56.236Z,15.78
2023-04-10T17:00:29.871Z,15.55
2023-04-10T17:03:01.067Z,15.32
2023-04-10T17:05:36.461Z,15.11
2023-04-10T17:08:07.563Z,14.88
2023-04-10T17:10:36.466Z,14.69
2023-04-10T17:13:04.666Z,14.54
2023-04-10T17:15:44.021Z,14.41
2023-04-10T17:18:12.846Z,14.31
2023-04-10T17:20:41.483Z,14.20
2023-04-10T17:23:09.660Z,14.10
2023-04-10T17:25:41.591Z,13.96
2023-04-10T17:28:09.940Z,13.78
2023-04-10T17:30:43.606Z,13.60
2023-04-10T17:33:11.926Z,13.46
2023-04-10T17:35:40.288Z,13.34
2023-04-10T17:38:09.223Z,13.25
2023-04-10T17:40:39.996Z,13.18
2023-04-10T17:43:11.399Z,13.13
2023-04-10T17:45:40.282Z,13.08
2023-04-10T17:48:08.801Z,13.04
2023-04-10T17:50:37.199Z,13.01
2023-04-10T17:53:05.447Z,12.96
2023-04-10T17:55:38.613Z,12.93
2023-04-10T17:58:07.780Z,12.90
2023-04-10T18:00:42.130Z,12.89
2023-04-10T18:03:10.607Z,12.86
2023-04-10T18:05:39.968Z,12.83
2023-04-10T18:08:09.925Z,12.80
2023-04-10T18:10:38.332Z,12.77
2023-04-10T18:13:06.731Z,12.75
2023-04-10T18:15:35.643Z,12.72
2023-04-10T18:18:04.451Z,12.72
2023-04-10T18:20:32.787Z,12.73
2023-04-10T18:23:04.416Z,12.75
2023-04-10T18:25:33.056Z,12.77
2023-04-10T18:30:33.173Z,12.78
2023-04-10T18:33:03.747Z,12.75
2023-04-10T18:35:34.060Z,12.72
2023-04-10T18:38:03.558Z,12.66
2023-04-10T18:40:38.391Z,12.61
2023-04-10T18:43:08.760Z,12.58
2023-04-10T18:45:37.125Z,12.55
2023-04-10T18:48:05.871Z,12.52
2023-04-10T18:50:35.743Z,12.52
2023-04-10T18:53:11.154Z,12.49
2023-04-10T18:55:39.712Z,12.46
2023-04-10T18:58:08.049Z,12.43
2023-04-10T19:00:36.452Z,12.44
2023-04-10T19:03:07.524Z,12.46
2023-04-10T19:05:37.139Z,12.48
2023-04-10T19:08:07.352Z,12.49
2023-04-10T19:10:37.618Z,12.50
2023-04-10T19:13:12.267Z,12.51
2023-04-10T19:15:46.270Z,12.52
2023-04-10T19:18:16.624Z,12.50
2023-04-10T19:20:50.393Z,12.46
2023-04-10T19:23:22.662Z,12.42
2023-04-10T19:25:52.841Z,12.37
2023-04-10T19:28:21.209Z,12.31
2023-04-10T19:31:09.374Z,12.24
2023-04-10T19:33:39.363Z,12.16
2023-04-10T19:36:08.587Z,12.09
2023-04-10T19:38:37.052Z,12.02
2023-04-10T19:41:15.362Z,11.95
2023-04-10T19:43:44.184Z,11.99
2023-04-10T19:46:19.275Z,11.97
2023-04-10T19:48:49.674Z,11.93
2023-04-10T19:51:17.975Z,11.86
2023-04-10T19:53:46.290Z,11.77
2023-04-10T19:56:16.769Z,11.70
2023-04-10T19:58:46.989Z,11.66
2023-04-10T20:01:16.158Z,11.64
2023-04-10T20:03:47.184Z,11.63
2023-04-10T20:06:16.458Z,11.63
2023-04-10T20:08:48.240Z,11.63
2023-04-10T20:11:16.595Z,11.61
2023-04-10T20:13:54.344Z,11.60
2023-04-10T20:16:24.273Z,11.57
2023-04-10T20:18:54.753Z,11.55
2023-04-10T20:21:23.434Z,11.55
2023-04-10T20:23:57.543Z,11.55
2023-04-10T20:26:26.002Z,11.54
2023-04-10T20:28:54.650Z,11.55
2023-04-10T20:31:23.393Z,11.58
2023-04-10T20:33:51.704Z,11.62
2023-04-10T20:36:20.296Z,11.64
2023-04-10T20:38:48.924Z,11.62
2023-04-10T20:41:17.331Z,11.62
2023-04-10T20:43:49.681Z,11.62
2023-04-10T20:46:18.555Z,11.62
2023-04-10T20:48:52.519Z,11.64
2023-04-10T20:51:21.358Z,11.69
2023-04-10T20:53:49.615Z,11.74
2023-04-10T20:56:17.868Z,11.78
2023-04-10T20:58:46.568Z,11.79
2023-04-10T21:01:16.090Z,11.81
2023-04-10T21:03:44.958Z,11.82
2023-04-10T21:06:17.032Z,11.81
2023-04-10T21:08:48.051Z,11.78
2023-04-10T21:11:16.424Z,11.77
2023-04-10T21:13:45.452Z,11.75
2023-04-10T21:16:13.782Z,11.72
2023-04-10T21:18:42.245Z,11.67
2023-04-10T21:21:19.866Z,11.63
2023-04-10T21:23:48.179Z,11.60
2023-04-10T21:26:16.445Z,11.60
2023-04-10T21:28:44.946Z,11.59
2023-04-10T21:31:14.640Z,11.57
2023-04-10T21:33:43.129Z,11.54
2023-04-10T21:36:12.619Z,11.51
2023-04-10T21:38:41.107Z,11.50
2023-04-10T21:41:11.895Z,11.49
2023-04-10T21:43:40.252Z,11.48
2023-04-10T21:46:08.802Z,11.46
2023-04-10T21:48:41.707Z,11.45
2023-04-10T21:51:13.401Z,11.43
2023-04-10T21:53:44.844Z,11.42
2023-04-10T21:56:13.166Z,11.40
2023-04-10T21:58:46.848Z,11.39
2023-04-10T22:01:15.633Z,11.38
2023-04-10T22:03:44.109Z,11.35
2023-04-10T22:06:20.437Z,11.32
2023-04-10T22:08:48.765Z,11.26
2023-04-10T22:11:16.978Z,11.23
2023-04-10T22:13:49.968Z,11.20
2023-04-10T22:16:18.701Z,11.11
2023-04-10T22:18:47.557Z,11.05
2023-04-10T22:21:17.427Z,10.99
2023-04-10T22:23:49.527Z,10.96
2023-04-10T22:26:20.523Z,10.92
2023-04-10T22:28:48.784Z,10.90
2023-04-10T22:31:17.861Z,10.89
2023-04-10T22:33:46.358Z,10.86
2023-04-10T22:36:15.787Z,10.82
2023-04-10T22:38:43.958Z,10.78
2023-04-10T22:41:13.855Z,10.74
2023-04-10T22:43:42.136Z,10.72
2023-04-10T22:46:12.871Z,10.71
2023-04-10T22:48:41.779Z,10.69
2023-04-10T22:51:11.772Z,10.65
2023-04-10T22:53:43.612Z,10.63
2023-04-10T22:56:12.710Z,10.60
2023-04-10T22:58:43.654Z,10.59
2023-04-10T23:01:14.692Z,10.57
2023-04-10T23:03:43.631Z,10.57
2023-04-10T23:06:14.468Z,10.57
2023-04-10T23:08:43.129Z,10.54
2023-04-10T23:11:11.319Z,10.50
2023-04-10T23:13:39.958Z,10.49
2023-04-10T23:16:09.678Z,10.48
2023-04-10T23:18:38.010Z,10.46
2023-04-10T23:21:11.399Z,10.46
2023-04-10T23:23:39.952Z,10.47
2023-04-10T23:26:08.224Z,10.47
2023-04-10T23:28:36.782Z,10.45
2023-04-10T23:31:05.880Z,10.44
2023-04-10T23:33:34.177Z,10.42
2023-04-10T23:36:02.607Z,10.40
2023-04-10T23:38:31.439Z,10.37
2023-04-10T23:41:03.121Z,10.34
2023-04-10T23:43:33.207Z,10.29
2023-04-10T23:46:01.765Z,10.24
2023-04-10T23:48:35.508Z,10.19
2023-04-10T23:51:08.066Z,10.14
2023-04-10T23:53:36.456Z,10.13
2023-04-10T23:56:05.494Z,10.13
2023-04-10T23:58:34.414Z,10.13
